Time;durP1;ratioP1;P1;durP2;ratioP2;P2;SDS_P1;SDS_P2;PMS_P1;PMS_P2;Temp;Humidity;BMP_temperature;BMP_pressure;BME280_temperature;BME280_humidity;BME280_pressure;Samples;Min_cycle;Max_cycle;Signal;HPM_P1;HPM_P2
2022/06/10 00:01:12;;;;;;;7.03;2.95;;;16.20;99.90;;;;;;4948893;28;20035;-34
2022/06/10 00:03:37;;;;;;;4.65;2.60;;;16.10;99.90;;;;;;4947134;28;20043;-35
2022/06/10 00:06:05;;;;;;;6.82;2.70;;;16.10;99.90;;;;;;4948477;29;20030;-35
2022/06/10 00:08:38;;;;;;;5.75;2.55;;;16.10;99.90;;;;;;4947796;28;20042;-35
2022/06/10 00:11:05;;;;;;;5.18;2.10;;;16.00;99.90;;;;;;4947712;28;20368;-35
2022/06/10 00:13:34;;;;;;;5.32;2.47;;;16.00;99.90;;;;;;4947607;28;20034;-34
2022/06/10 00:16:00;;;;;;;6.97;2.75;;;15.90;99.90;;;;;;4948408;29;20524;-34
2022/06/10 00:18:28;;;;;;;5.18;2.10;;;15.90;99.90;;;;;;4946458;28;20026;-33
2022/06/10 00:20:54;;;;;;;4.90;2.58;;;15.90;99.90;;;;;;4948371;28;20034;-34
2022/06/10 00:23:20;;;;;;;4.25;2.35;;;15.80;99.90;;;;;;4947272;28;20025;-35
2022/06/10 00:25:46;;;;;;;8.23;2.53;;;15.80;99.90;;;;;;4946846;29;20062;-33
2022/06/10 00:28:14;;;;;;;5.93;2.60;;;15.80;99.90;;;;;;4948000;28;20475;-34
2022/06/10 00:30:40;;;;;;;5.60;2.53;;;15.80;99.90;;;;;;4947317;29;20114;-41
2022/06/10 00:33:06;;;;;;;7.32;2.60;;;15.70;99.90;;;;;;4947277;28;20490;-34
2022/06/10 00:35:32;;;;;;;7.30;2.65;;;15.70;99.90;;;;;;4947674;28;20110;-34
2022/06/10 00:37:58;;;;;;;7.40;2.72;;;15.70;99.90;;;;;;4947952;28;20151;-36
2022/06/10 00:40:34;;;;;;;4.43;2.22;;;15.60;99.90;;;;;;4946503;28;20042;-34
2022/06/10 00:43:00;;;;;;;5.07;2.17;;;15.60;99.90;;;;;;4947550;28;20031;-33
2022/06/10 00:45:44;;;;;;;5.05;2.58;;;15.60;99.90;;;;;;4946387;28;20050;-33
2022/06/10 00:48:13;;;;;;;7.55;2.45;;;15.50;99.90;;;;;;4947785;28;20090;-36
2022/06/10 00:50:39;;;;;;;5.82;2.65;;;15.50;99.90;;;;;;4946393;29;20039;-34
2022/06/10 00:53:06;;;;;;;4.95;2.30;;;15.50;99.90;;;;;;4947543;28;20039;-34
2022/06/10 00:55:32;;;;;;;5.10;2.20;;;15.40;99.90;;;;;;4946730;28;20049;-36
2022/06/10 00:58:07;;;;;;;6.40;2.10;;;15.40;99.90;;;;;;4948478;29;20368;-35
2022/06/10 01:00:36;;;;;;;4.20;1.90;;;15.40;99.90;;;;;;4946187;28;20031;-35
2022/06/10 01:03:02;;;;;;;6.40;2.47;;;15.40;99.90;;;;;;4947511;28;20093;-36
2022/06/10 01:05:28;;;;;;;5.90;2.30;;;15.30;99.90;;;;;;4946720;29;20027;-33
2022/06/10 01:08:02;;;;;;;7.13;2.50;;;15.30;99.90;;;;;;4947254;29;20135;-35
2022/06/10 01:10:33;;;;;;;4.13;2.22;;;15.30;99.90;;;;;;4946944;29;20034;-35
2022/06/10 01:13:29;;;;;;;3.70;2.23;;;15.30;99.90;;;;;;4947707;28;20118;-35
2022/06/10 01:16:18;;;;;;;5.75;2.20;;;15.20;99.90;;;;;;4949088;28;20027;-36
2022/06/10 01:18:58;;;;;;;4.78;2.10;;;15.20;99.90;;;;;;4950628;28;20721;-34
2022/06/10 01:21:42;;;;;;;3.42;2.22;;;15.10;99.90;;;;;;4949802;28;20039;-34
2022/06/10 01:24:21;;;;;;;5.00;2.67;;;15.10;99.90;;;;;;4951181;29;20047;-33
2022/06/10 01:30:16;;;;;;;5.82;2.30;;;15.10;99.90;;;;;;4950835;29;20526;-36
2022/06/10 01:32:51;;;;;;;4.93;1.95;;;15.00;99.90;;;;;;4940695;29;20042;-35
2022/06/10 01:35:43;;;;;;;5.93;2.40;;;15.00;99.90;;;;;;4949997;29;20371;-35
2022/06/10 01:38:45;;;;;;;6.95;2.58;;;15.00;99.90;;;;;;4944033;29;20529;-35
2022/06/10 01:41:29;;;;;;;5.95;2.35;;;14.90;99.90;;;;;;4951051;28;20019;-34
2022/06/10 01:44:13;;;;;;;7.10;2.30;;;14.90;99.90;;;;;;4950765;29;20364;-35
2022/06/10 01:47:00;;;;;;;6.05;2.40;;;14.90;99.90;;;;;;4950117;29;20035;-35
2022/06/10 01:49:33;;;;;;;7.05;2.72;;;14.80;99.90;;;;;;4949678;29;20349;-34
2022/06/10 01:52:06;;;;;;;4.10;2.30;;;14.80;99.90;;;;;;4950703;28;20032;-35
2022/06/10 01:54:37;;;;;;;5.28;2.53;;;14.80;99.90;;;;;;4950289;29;20043;-35
2022/06/10 01:57:13;;;;;;;7.65;2.22;;;14.80;99.90;;;;;;4949419;29;20364;-34
2022/06/10 01:59:50;;;;;;;4.32;2.25;;;14.80;99.90;;;;;;4950567;28;20051;-35
2022/06/10 02:02:20;;;;;;;6.20;2.35;;;14.70;99.90;;;;;;4949966;28;20031;-34
2022/06/10 02:04:55;;;;;;;3.65;2.55;;;14.70;99.90;;;;;;4949770;28;20062;-34
2022/06/10 02:07:30;;;;;;;5.90;2.70;;;14.70;99.90;;;;;;4949696;29;20205;-35
2022/06/10 02:10:20;;;;;;;5.20;2.83;;;14.70;99.90;;;;;;4950148;28;20039;-35
2022/06/10 02:12:52;;;;;;;7.47;2.50;;;14.70;99.90;;;;;;4946888;29;20069;-34
2022/06/10 02:15:24;;;;;;;5.57;2.33;;;14.70;99.90;;;;;;4950307;28;20161;-35
2022/06/10 02:17:56;;;;;;;6.53;2.53;;;14.70;99.90;;;;;;4949550;28;20070;-34
2022/06/10 02:20:24;;;;;;;;;;;14.70;99.90;;;;;;4949850;28;20507;-36
2022/06/10 02:22:54;;;;;;;3.25;2.08;;;14.70;99.90;;;;;;4950217;28;19907;-32
2022/06/10 02:25:27;;;;;;;5.45;2.50;;;14.70;99.90;;;;;;4949452;28;20031;-35
2022/06/10 02:27:57;;;;;;;6.57;2.72;;;14.70;99.90;;;;;;4948467;28;20031;-35
2022/06/10 02:30:28;;;;;;;7.00;2.80;;;14.70;99.90;;;;;;4950054;28;20438;-35
2022/06/10 02:32:58;;;;;;;6.60;2.72;;;14.70;99.90;;;;;;4949204;29;20058;-35
2022/06/10 02:35:28;;;;;;;4.60;2.58;;;14.80;99.90;;;;;;4949933;28;20027;-34
2022/06/10 02:38:05;;;;;;;5.45;2.47;;;14.80;99.90;;;;;;4949433;28;20459;-35
2022/06/10 02:40:44;;;;;;;4.72;2.30;;;14.90;99.90;;;;;;4949850;28;20094;-35
2022/06/10 02:43:57;;;;;;;4.28;2.45;;;14.90;99.90;;;;;;4949349;28;20019;-36
2022/06/10 02:46:29;;;;;;;;;;;15.00;99.90;;;;;;4928141;29;20079;-35
2022/06/10 02:49:05;;;;;;;5.35;2.70;;;15.00;99.90;;;;;;4945047;28;19973;-35
2022/06/10 02:51:31;;;;;;;6.25;2.72;;;15.00;99.90;;;;;;4948958;28;20023;-36
2022/06/10 02:53:59;;;;;;;6.07;2.50;;;15.10;99.90;;;;;;4948800;29;20097;-34
2022/06/10 02:56:27;;;;;;;5.28;2.42;;;15.10;99.90;;;;;;4948988;28;20464;-34
2022/06/10 03:02:09;;;;;;;5.65;2.55;;;15.20;99.90;;;;;;4949449;29;20074;-34
2022/06/10 03:04:49;;;;;;;5.53;2.35;;;15.30;99.90;;;;;;4948039;29;20051;-33
2022/06/10 03:07:34;;;;;;;4.15;2.33;;;15.30;99.90;;;;;;4929282;29;20071;-35
2022/06/10 03:10:33;;;;;;;7.57;2.70;;;15.40;99.90;;;;;;4946986;29;20023;-34
2022/06/10 03:13:04;;;;;;;5.45;2.38;;;15.40;99.90;;;;;;4948805;29;20086;-36
2022/06/10 03:16:11;;;;;;;5.13;2.10;;;15.40;99.90;;;;;;4947716;28;20023;-34
2022/06/10 03:19:03;;;;;;;5.45;2.45;;;15.40;99.90;;;;;;4942184;29;20361;-34
2022/06/10 03:21:53;;;;;;;6.82;2.38;;;15.50;99.90;;;;;;4938888;29;20027;-35
2022/06/10 03:24:25;;;;;;;7.32;2.30;;;15.50;99.90;;;;;;4948572;28;20114;-35
2022/06/10 03:27:04;;;;;;;5.00;2.22;;;15.50;99.90;;;;;;4948518;29;20027;-34
2022/06/10 03:29:53;;;;;;;5.60;2.60;;;15.50;99.90;;;;;;4948486;28;20078;-34
2022/06/10 03:32:30;;;;;;;4.68;2.25;;;15.50;99.90;;;;;;4948874;29;20035;-34
2022/06/10 03:35:09;;;;;;;6.28;2.40;;;15.50;99.90;;;;;;4948330;28;20467;-34
2022/06/10 03:37:38;;;;;;;6.18;2.17;;;15.50;99.90;;;;;;4948351;28;20031;-34
2022/06/10 03:40:04;;;;;;;5.43;1.95;;;15.50;99.90;;;;;;4948744;28;20111;-34
2022/06/10 03:42:29;;;;;;;5.07;2.00;;;15.60;99.90;;;;;;4947177;29;20424;-35
2022/06/10 03:44:58;;;;;;;5.50;1.88;;;15.60;99.90;;;;;;4947889;29;20031;-35
2022/06/10 03:47:32;;;;;;;7.97;2.10;;;15.60;99.90;;;;;;4948096;28;20019;-34
2022/06/10 03:50:00;;;;;;;5.45;2.08;;;15.60;99.90;;;;;;4947807;28;20538;-35
2022/06/10 03:52:30;;;;;;;5.18;2.65;;;15.60;99.90;;;;;;4947937;29;20016;-34
2022/06/10 03:54:56;;;;;;;6.72;2.13;;;15.60;99.90;;;;;;4948422;28;20047;-34
2022/06/10 03:57:21;;;;;;;6.13;2.47;;;15.60;99.90;;;;;;4946982;29;20038;-34
2022/06/10 03:59:47;;;;;;;4.53;2.20;;;15.60;99.90;;;;;;4948140;29;20035;-35
2022/06/10 04:02:13;;;;;;;4.28;2.00;;;15.60;99.90;;;;;;4947532;28;20019;-34
2022/06/10 04:04:39;;;;;;;5.55;1.92;;;15.70;99.90;;;;;;4947851;28;20047;-34
2022/06/10 04:07:06;;;;;;;3.40;1.77;;;15.60;99.90;;;;;;4948082;28;20471;-34
2022/06/10 04:09:31;;;;;;;4.75;1.70;;;15.60;99.90;;;;;;4947158;28;20024;-35
2022/06/10 04:11:57;;;;;;;4.75;1.88;;;15.60;99.90;;;;;;4947978;28;20031;-35
2022/06/10 04:14:23;;;;;;;3.15;1.65;;;15.60;99.90;;;;;;4948085;29;20019;-34
2022/06/10 04:16:49;;;;;;;3.17;1.52;;;15.60;99.90;;;;;;4946868;29;20042;-35
2022/06/10 04:19:15;;;;;;;3.00;1.42;;;15.60;99.90;;;;;;4948013;29;20097;-35
2022/06/10 04:21:40;;;;;;;4.15;1.50;;;15.60;99.90;;;;;;4947620;29;20475;-35
2022/06/10 04:24:06;;;;;;;1.98;1.30;;;15.60;99.90;;;;;;4947047;29;20077;-33
2022/06/10 04:26:33;;;;;;;6.40;1.80;;;15.60;99.90;;;;;;4947004;29;20804;-36
2022/06/10 04:28:58;;;;;;;3.95;1.70;;;15.60;99.90;;;;;;4948630;28;20027;-35
2022/06/10 04:31:24;;;;;;;3.78;1.55;;;15.60;99.90;;;;;;4947057;29;20485;-34
2022/06/10 04:33:49;;;;;;;5.43;1.80;;;15.60;99.90;;;;;;4948149;29;20030;-34
2022/06/10 04:36:17;;;;;;;3.97;1.73;;;15.60;99.90;;;;;;4947586;28;20024;-35
2022/06/10 04:38:43;;;;;;;3.22;1.70;;;15.60;99.90;;;;;;4946901;29;20027;-37
2022/06/10 04:41:09;;;;;;;4.05;1.80;;;15.60;99.90;;;;;;4947729;29;20038;-34
2022/06/10 04:43:35;;;;;;;6.15;1.90;;;15.70;99.90;;;;;;4947932;28;20039;-34
2022/06/10 04:46:03;;;;;;;7.80;2.22;;;15.60;99.90;;;;;;4946959;29;20095;-34
2022/06/10 04:48:32;;;;;;;5.47;2.03;;;15.60;99.90;;;;;;4947382;29;20128;-34
2022/06/10 04:50:58;;;;;;;2.75;1.60;;;15.60;99.90;;;;;;4949659;28;20070;-35
2022/06/10 04:53:23;;;;;;;5.70;2.00;;;15.60;99.90;;;;;;4949923;29;20055;-35
2022/06/10 04:55:52;;;;;;;4.88;2.03;;;15.50;99.90;;;;;;4951578;28;20042;-34
2022/06/10 04:58:18;;;;;;;3.83;1.70;;;15.50;99.90;;;;;;4950505;29;20386;-34
2022/06/10 05:00:49;;;;;;;4.43;1.63;;;15.50;99.90;;;;;;4950872;29;20035;-34
2022/06/10 05:03:15;;;;;;;3.40;1.20;;;15.60;99.90;;;;;;4951286;28;20023;-34
2022/06/10 05:05:42;;;;;;;3.60;1.95;;;15.60;99.90;;;;;;4950835;29;20031;-35
2022/06/10 05:08:10;;;;;;;5.05;2.58;;;15.60;99.90;;;;;;4951172;28;20115;-34
2022/06/10 05:10:36;;;;;;;4.68;2.35;;;15.70;99.90;;;;;;4950854;28;20027;-34
2022/06/10 05:13:02;;;;;;;8.75;2.90;;;15.70;99.90;;;;;;4950861;28;20090;-34
2022/06/10 05:15:28;;;;;;;3.70;2.08;;;15.80;99.90;;;;;;4951338;29;20130;-36
2022/06/10 05:17:56;;;;;;;4.70;1.80;;;15.80;99.90;;;;;;4951234;28;20432;-35
2022/06/10 05:20:32;;;;;;;6.55;2.72;;;15.90;99.90;;;;;;4950792;28;20183;-34
2022/06/10 05:22:58;;;;;;;5.25;2.30;;;15.90;99.90;;;;;;4951108;28;20524;-34
2022/06/10 05:25:24;;;;;;;5.57;2.22;;;16.10;99.90;;;;;;4950921;29;20143;-35
2022/06/10 05:27:49;;;;;;;6.38;1.92;;;16.10;99.90;;;;;;4950753;29;20471;-34
2022/06/10 05:30:18;;;;;;;4.20;1.90;;;16.10;99.90;;;;;;4951122;29;20479;-34
2022/06/10 05:32:44;;;;;;;5.25;2.30;;;16.20;99.90;;;;;;4951139;28;20046;-35
2022/06/10 05:35:09;;;;;;;3.97;2.00;;;16.30;99.90;;;;;;4949827;29;20391;-35
2022/06/10 05:37:35;;;;;;;2.65;1.90;;;16.40;99.90;;;;;;4950007;28;20066;-33
2022/06/10 05:40:00;;;;;;;3.08;1.67;;;16.40;99.90;;;;;;4951046;29;20024;-34
2022/06/10 05:42:26;;;;;;;4.70;1.90;;;16.50;99.90;;;;;;4947181;29;20458;-36
2022/06/10 05:44:52;;;;;;;4.43;1.90;;;16.50;99.90;;;;;;4950557;29;20421;-34
2022/06/10 05:47:24;;;;;;;4.40;2.10;;;16.60;99.90;;;;;;4946923;28;20471;-34
2022/06/10 05:49:53;;;;;;;2.67;1.75;;;16.60;99.90;;;;;;4948313;28;20037;-35
2022/06/10 05:52:21;;;;;;;3.53;1.98;;;16.60;99.90;;;;;;4949138;28;20039;-34
2022/06/10 05:54:49;;;;;;;4.82;2.08;;;16.70;99.90;;;;;;4948262;28;20507;-34
2022/06/10 05:57:15;;;;;;;4.90;2.22;;;16.70;99.90;;;;;;4948926;28;20032;-34
2022/06/10 05:59:41;;;;;;;8.35;2.50;;;16.70;99.90;;;;;;4949539;29;20359;-35
2022/06/10 06:02:09;;;;;;;4.22;1.70;;;16.80;99.90;;;;;;4948074;28;20402;-35
2022/06/10 06:04:35;;;;;;;5.28;1.80;;;16.80;99.90;;;;;;4949230;29;20479;-34
2022/06/10 06:07:01;;;;;;;3.47;1.70;;;16.90;99.90;;;;;;4949402;28;20086;-35
2022/06/10 06:09:26;;;;;;;3.50;1.40;;;17.00;99.90;;;;;;4948163;28;20054;-35
2022/06/10 06:11:57;;;;;;;5.65;2.00;;;17.10;99.90;;;;;;4949194;29;20026;-35
2022/06/10 06:14:25;;;;;;;3.03;2.13;;;17.10;99.90;;;;;;4949247;28;20518;-34
2022/06/10 06:16:57;;;;;;;3.47;1.92;;;17.10;99.90;;;;;;4948235;28;20489;-33
2022/06/10 06:19:24;;;;;;;3.87;1.60;;;17.30;99.90;;;;;;4949122;28;20031;-35
2022/06/10 06:21:50;;;;;;;4.65;1.52;;;17.40;99.90;;;;;;4945366;29;20016;-34
2022/06/10 06:24:16;;;;;;;6.22;1.70;;;17.50;99.90;;;;;;4948316;28;20050;-35
2022/06/10 06:26:42;;;;;;;2.55;1.33;;;17.60;99.90;;;;;;4949338;29;20328;-34
2022/06/10 06:29:08;;;;;;;5.80;1.58;;;17.70;99.90;;;;;;4949636;28;20115;-36
2022/06/10 06:31:34;;;;;;;4.15;1.75;;;17.80;99.90;;;;;;4947751;28;20020;-35
2022/06/10 06:33:59;;;;;;;2.38;1.52;;;17.90;99.90;;;;;;4949570;29;20086;-34
2022/06/10 06:36:27;;;;;;;3.80;1.65;;;17.90;99.90;;;;;;4949613;28;20027;-35
2022/06/10 06:38:53;;;;;;;3.58;1.90;;;17.90;99.90;;;;;;4947855;28;20499;-35
2022/06/10 06:41:21;;;;;;;6.30;1.73;;;17.80;99.90;;;;;;4949172;28;20059;-34
2022/06/10 06:43:47;;;;;;;4.53;1.80;;;17.90;99.90;;;;;;4948977;28;20042;-34
2022/06/10 06:46:15;;;;;;;5.25;1.65;;;17.90;99.90;;;;;;4949108;28;20035;-36
2022/06/10 06:48:42;;;;;;;5.20;1.88;;;18.00;99.90;;;;;;4949232;29;20471;-35
2022/06/10 06:51:09;;;;;;;4.25;2.05;;;18.10;99.90;;;;;;4948788;28;20470;-34
2022/06/10 06:53:36;;;;;;;5.40;2.10;;;18.10;99.90;;;;;;4947929;29;20094;-35
2022/06/10 06:56:03;;;;;;;8.65;2.50;;;18.10;99.90;;;;;;4948668;28;20495;-35
2022/06/10 06:58:29;;;;;;;5.38;2.10;;;18.10;99.90;;;;;;4929584;29;20506;-35
2022/06/10 07:00:55;;;;;;;7.55;2.15;;;18.20;99.90;;;;;;4932655;29;20376;-35
2022/06/10 07:03:21;;;;;;;3.28;1.58;;;18.20;99.90;;;;;;4949423;29;20031;-34
2022/06/10 07:05:47;;;;;;;3.58;1.67;;;18.20;99.90;;;;;;4948312;29;20068;-34
2022/06/10 07:08:12;;;;;;;2.97;1.50;;;18.30;99.90;;;;;;4949206;28;20027;-34
2022/06/10 07:10:39;;;;;;;4.68;1.92;;;18.40;99.90;;;;;;4949166;28;20086;-36
2022/06/10 07:13:05;;;;;;;4.70;1.80;;;18.40;99.90;;;;;;4948032;28;20118;-35
2022/06/10 07:15:30;;;;;;;6.82;1.90;;;18.40;99.90;;;;;;4948745;28;20106;-35
2022/06/10 07:17:57;;;;;;;4.10;1.85;;;18.40;99.90;;;;;;4948948;29;20110;-33
2022/06/10 07:20:31;;;;;;;3.85;1.73;;;18.30;99.90;;;;;;4948458;28;20139;-35
2022/06/10 07:22:58;;;;;;;5.38;1.75;;;18.30;99.90;;;;;;4949161;28;20031;-34
2022/06/10 07:25:25;;;;;;;3.75;1.77;;;18.30;99.90;;;;;;4948503;28;20042;-36
2022/06/10 07:27:52;;;;;;;6.38;1.98;;;18.30;99.90;;;;;;4948595;28;20027;-34
2022/06/10 07:30:19;;;;;;;3.15;1.52;;;18.30;99.90;;;;;;4948520;28;20029;-35
2022/06/10 07:32:46;;;;;;;4.05;1.65;;;18.30;99.90;;;;;;4948202;28;20026;-35
2022/06/10 07:35:13;;;;;;;3.38;1.30;;;18.40;99.90;;;;;;4948459;29;20046;-36
2022/06/10 07:37:40;;;;;;;5.63;1.75;;;18.50;99.90;;;;;;4948470;28;20610;-34
2022/06/10 07:40:07;;;;;;;3.30;1.50;;;18.50;99.90;;;;;;4947555;29;20031;-35
2022/06/10 07:42:34;;;;;;;4.95;1.63;;;18.60;99.90;;;;;;4947960;28;20046;-34
2022/06/10 07:45:02;;;;;;;5.10;1.60;;;18.60;99.90;;;;;;4949089;28;20143;-35
2022/06/10 07:47:28;;;;;;;2.70;1.27;;;18.60;99.90;;;;;;4947378;28;20031;-34
2022/06/10 07:49:54;;;;;;;4.50;1.30;;;18.70;99.90;;;;;;4949001;28;20552;-36
2022/06/10 07:52:19;;;;;;;5.00;1.67;;;18.80;99.90;;;;;;4948577;29;20542;-35
2022/06/10 07:54:45;;;;;;;4.57;1.50;;;18.90;99.90;;;;;;4947181;28;20051;-34
2022/06/10 07:57:11;;;;;;;3.38;1.27;;;19.00;99.90;;;;;;4949254;29;20035;-35
2022/06/10 07:59:40;;;;;;;6.82;1.75;;;19.10;99.90;;;;;;4947791;28;20070;-34
2022/06/10 08:02:06;;;;;;;2.95;1.35;;;19.20;99.90;;;;;;4948378;28;20110;-33
2022/06/10 08:04:31;;;;;;;2.72;1.08;;;19.40;99.90;;;;;;4947593;28;20130;-34
2022/06/10 08:06:57;;;;;;;4.15;1.50;;;19.50;99.90;;;;;;4948715;29;20434;-35
2022/06/10 08:09:23;;;;;;;3.05;1.42;;;19.70;99.90;;;;;;4947998;29;20463;-33
2022/06/10 08:11:50;;;;;;;4.25;1.27;;;19.80;99.90;;;;;;4948806;28;20024;-33
2022/06/10 08:14:16;;;;;;;2.78;0.90;;;19.90;99.90;;;;;;4947641;28;20035;-33
2022/06/10 08:16:41;;;;;;;4.45;1.30;;;20.00;99.90;;;;;;4947927;28;20379;-35
2022/06/10 08:19:13;;;;;;;4.13;1.35;;;20.10;99.90;;;;;;4948253;29;20522;-35
2022/06/10 08:24:24;;;;;;;4.13;1.40;;;20.10;99.90;;;;;;4946811;28;20045;-34
2022/06/10 08:26:50;;;;;;;2.22;1.15;;;20.20;99.90;;;;;;4948314;28;20442;-35
2022/06/10 08:29:19;;;;;;;2.28;1.20;;;20.30;99.90;;;;;;4947878;29;20034;-37
2022/06/10 08:31:44;;;;;;;2.95;1.23;;;20.50;99.90;;;;;;4946043;29;20442;-35
2022/06/10 08:34:11;;;;;;;2.20;1.10;;;20.60;99.90;;;;;;4947736;28;20803;-35
2022/06/10 08:36:37;;;;;;;2.70;1.40;;;20.60;99.90;;;;;;4946720;28;20031;-35
2022/06/10 08:39:03;;;;;;;2.30;0.90;;;20.60;99.90;;;;;;4947992;28;20518;-35
2022/06/10 08:41:53;;;;;;;2.80;1.23;;;20.70;99.90;;;;;;4943399;29;20023;-35
2022/06/10 08:44:52;;;;;;;2.55;1.30;;;20.70;99.90;;;;;;4942535;28;20047;-35
2022/06/10 08:47:43;;;;;;;4.00;1.33;;;20.70;99.90;;;;;;4938367;29;20027;-36
2022/06/10 08:50:54;;;;;;;3.30;1.42;;;20.80;99.90;;;;;;4947904;28;20114;-34
2022/06/10 08:53:31;;;;;;;4.15;1.48;;;20.80;99.90;;;;;;4942282;29;20122;-35
2022/06/10 08:56:28;;;;;;;4.10;1.38;;;20.70;99.90;;;;;;4947544;29;20067;-34
2022/06/10 08:59:10;;;;;;;3.72;1.40;;;20.60;99.90;;;;;;4927928;29;20052;-35
2022/06/10 09:01:48;;;;;;;3.50;1.40;;;20.50;99.90;;;;;;4944357;29;20612;-36
2022/06/10 09:04:31;;;;;;;3.53;1.20;;;20.50;99.90;;;;;;4947401;29;20042;-35
2022/06/10 09:07:01;;;;;;;4.28;1.40;;;20.50;99.90;;;;;;4947949;29;20035;-35
2022/06/10 09:09:29;;;;;;;3.90;1.33;;;20.50;99.90;;;;;;4947715;28;20034;-35
2022/06/10 09:12:11;;;;;;;4.10;1.45;;;20.50;99.90;;;;;;4947592;28;20066;-35
2022/06/10 09:14:37;;;;;;;4.85;1.70;;;20.60;99.90;;;;;;4947106;28;20028;-33
2022/06/10 09:17:09;;;;;;;3.42;1.30;;;20.70;99.90;;;;;;4947415;28;20036;-36
2022/06/10 09:19:36;;;;;;;;;;;20.90;99.90;;;;;;4928417;29;20066;-35
2022/06/10 09:22:34;;;;;;;6.25;1.88;;;21.10;99.90;;;;;;4942361;29;19918;-35
2022/06/10 09:25:08;;;;;;;3.03;1.20;;;21.20;99.90;;;;;;4918334;29;20072;-36
2022/06/10 09:27:39;;;;;;;4.78;1.70;;;21.40;99.90;;;;;;4943723;29;20086;-36
2022/06/10 09:30:08;;;;;;;5.20;1.65;;;21.50;99.90;;;;;;4948084;28;20098;-34
2022/06/10 09:33:02;;;;;;;4.13;1.20;;;21.60;99.90;;;;;;4946807;28;20019;-36
2022/06/10 09:35:39;;;;;;;4.53;1.52;;;21.70;99.90;;;;;;4927664;29;20464;-34
2022/06/10 09:38:25;;;;;;;4.90;1.20;;;21.80;99.90;;;;;;4949296;28;20036;-36
2022/06/10 09:41:00;;;;;;;3.03;1.38;;;22.00;99.90;;;;;;4950340;28;20042;-36
2022/06/10 09:43:43;;;;;;;3.25;1.30;;;22.10;99.90;;;;;;4949202;29;20078;-36
2022/06/10 09:47:07;;;;;;;4.32;1.48;;;22.10;99.90;;;;;;4950768;29;20032;-34
2022/06/10 09:49:47;;;;;;;4.15;1.23;;;22.20;99.80;;;;;;4928488;29;20040;-36
2022/06/10 09:52:29;;;;;;;4.07;1.55;;;22.20;99.80;;;;;;4950587;29;20101;-36
2022/06/10 09:54:58;;;;;;;;;;;22.10;99.90;;;;;;4950386;28;20069;-35
2022/06/10 09:57:23;;;;;;;5.35;1.60;;;22.10;99.70;;;;;;4949854;29;19913;-36
2022/06/10 10:00:01;;;;;;;4.88;1.48;;;22.00;99.90;;;;;;4950696;29;20027;-36
2022/06/10 10:02:27;;;;;;;3.58;1.20;;;21.90;99.90;;;;;;4949344;28;20043;-36
2022/06/10 10:05:16;;;;;;;2.92;1.20;;;21.90;99.90;;;;;;4949770;28;20062;-35
2022/06/10 10:08:09;;;;;;;3.90;1.50;;;22.00;99.90;;;;;;4949866;28;20035;-35
2022/06/10 10:10:46;;;;;;;4.07;1.40;;;22.10;99.90;;;;;;4944836;29;20066;-35
2022/06/10 10:13:15;;;;;;;6.50;1.90;;;22.10;99.80;;;;;;4950162;28;20753;-35
2022/06/10 10:15:57;;;;;;;5.07;1.60;;;22.10;99.60;;;;;;4948849;29;20027;-35
2022/06/10 10:18:37;;;;;;;5.15;1.83;;;22.10;99.60;;;;;;4949560;28;20632;-35
2022/06/10 10:21:09;;;;;;;6.63;1.50;;;22.20;99.60;;;;;;4950462;29;20101;-37
2022/06/10 10:23:41;;;;;;;2.58;1.05;;;22.40;99.40;;;;;;4948558;28;20043;-36
2022/06/10 10:26:20;;;;;;;3.92;1.13;;;22.60;99.50;;;;;;4950090;29;20037;-37
2022/06/10 10:28:47;;;;;;;3.38;1.20;;;22.80;99.30;;;;;;4948887;28;20371;-38
2022/06/10 10:31:26;;;;;;;4.35;1.60;;;22.90;99.20;;;;;;4949210;29;20585;-38
2022/06/10 10:33:52;;;;;;;3.25;1.45;;;23.00;99.00;;;;;;4950013;28;20572;-36
2022/06/10 10:36:27;;;;;;;4.13;1.40;;;23.10;98.70;;;;;;4949489;28;20027;-36
2022/06/10 10:38:56;;;;;;;3.53;1.52;;;23.10;98.70;;;;;;4949894;29;20850;-36
2022/06/10 10:41:42;;;;;;;5.80;2.17;;;23.00;98.50;;;;;;4947309;29;20570;-36
2022/06/10 10:44:49;;;;;;;4.22;1.50;;;23.00;98.40;;;;;;4944849;28;20039;-35
2022/06/10 10:47:18;;;;;;;4.47;1.70;;;23.00;98.60;;;;;;4937479;29;20035;-34
2022/06/10 10:50:04;;;;;;;5.18;1.80;;;23.10;98.60;;;;;;4934421;28;20334;-35
2022/06/10 10:52:39;;;;;;;5.72;1.65;;;23.20;98.50;;;;;;4906778;29;20627;-34
2022/06/10 10:55:13;;;;;;;6.50;2.22;;;23.30;98.40;;;;;;4945109;29;20055;-35
2022/06/10 10:57:44;;;;;;;6.22;2.05;;;23.20;98.20;;;;;;4947670;28;20031;-35
2022/06/10 11:00:10;;;;;;;5.40;1.85;;;23.20;98.10;;;;;;4949143;28;20043;-36
2022/06/10 11:02:52;;;;;;;6.07;2.30;;;23.20;98.00;;;;;;4947911;28;20035;-35
2022/06/10 11:05:31;;;;;;;3.72;1.40;;;23.30;98.10;;;;;;4947372;29;20074;-36
2022/06/10 11:08:13;;;;;;;4.15;1.42;;;23.40;98.20;;;;;;4936977;28;20118;-35
2022/06/10 11:10:58;;;;;;;5.68;2.78;;;23.40;98.20;;;;;;4943460;29;20035;-34
2022/06/10 11:13:51;;;;;;;7.85;1.60;;;23.40;98.00;;;;;;4928381;29;20028;-36
2022/06/10 11:16:29;;;;;;;3.75;1.50;;;23.30;98.10;;;;;;4945964;29;20576;-35
2022/06/10 11:19:07;;;;;;;6.32;1.98;;;23.20;98.40;;;;;;4948155;28;20086;-36
2022/06/10 11:22:05;;;;;;;5.03;1.98;;;23.10;98.50;;;;;;4946881;28;20039;-36
2022/06/10 11:24:44;;;;;;;3.15;1.30;;;23.10;98.50;;;;;;4917019;28;20494;-36
2022/06/10 11:27:37;;;;;;;4.13;1.52;;;23.00;98.50;;;;;;4944732;29;20027;-35
2022/06/10 11:30:12;;;;;;;6.85;1.80;;;22.90;98.60;;;;;;4946652;29;20126;-36
2022/06/10 11:32:49;;;;;;;5.53;1.80;;;22.80;98.70;;;;;;4946670;28;20050;-37
2022/06/10 11:35:39;;;;;;;4.47;1.50;;;22.80;98.80;;;;;;4947816;29;20019;-36
2022/06/10 11:38:21;;;;;;;3.40;1.33;;;22.80;98.90;;;;;;4934348;29;20145;-35
2022/06/10 11:40:46;;;;;;;4.88;1.83;;;22.90;98.90;;;;;;4946609;28;20677;-35
2022/06/10 11:43:28;;;;;;;5.80;2.08;;;22.90;98.60;;;;;;4946954;29;20037;-36
2022/06/10 11:45:59;;;;;;;4.55;2.05;;;22.90;98.50;;;;;;4948568;28;20059;-36
2022/06/10 11:48:54;;;;;;;4.95;2.40;;;23.10;98.50;;;;;;4947096;29;20023;-36
2022/06/10 11:51:33;;;;;;;6.60;2.30;;;23.20;98.40;;;;;;4947165;28;20183;-35
2022/06/10 11:54:12;;;;;;;6.72;2.20;;;23.30;98.30;;;;;;4946680;29;20074;-36
2022/06/10 12:00:10;;;;;;;4.80;2.35;;;23.40;97.70;;;;;;4947503;28;20089;-36
2022/06/10 12:02:46;;;;;;;6.18;2.03;;;23.50;97.70;;;;;;4945245;28;20114;-36
2022/06/10 12:05:30;;;;;;;4.70;1.55;;;23.50;97.80;;;;;;4945898;29;20050;-34
2022/06/10 12:08:18;;;;;;;5.35;1.63;;;23.50;97.90;;;;;;4946147;29;20854;-36
2022/06/10 12:11:22;;;;;;;4.72;1.70;;;23.50;98.00;;;;;;4950530;28;20044;-36
2022/06/10 12:14:21;;;;;;;4.88;1.70;;;23.60;98.10;;;;;;4947050;28;20087;-34
2022/06/10 12:16:52;;;;;;;5.07;1.58;;;23.80;98.10;;;;;;4947536;28;20054;-37
2022/06/10 12:19:28;;;;;;;3.40;1.63;;;23.90;98.00;;;;;;4947506;28;20075;-36
2022/06/10 12:21:53;;;;;;;4.45;1.60;;;24.10;97.90;;;;;;4947906;28;20483;-36
2022/06/10 12:24:21;;;;;;;3.47;1.35;;;24.10;97.80;;;;;;4947699;29;20027;-36
2022/06/10 12:26:53;;;;;;;5.05;1.55;;;24.20;97.80;;;;;;4964066;28;20901;-35
2022/06/10 12:29:41;;;;;;;2.47;1.30;;;24.30;97.80;;;;;;4947458;29;20051;-36
2022/06/10 12:32:21;;;;;;;4.43;1.63;;;24.30;97.80;;;;;;4948150;29;20139;-35
2022/06/10 12:34:53;;;;;;;3.15;1.40;;;24.20;97.90;;;;;;4937676;29;20050;-35
2022/06/10 12:37:40;;;;;;;3.08;1.20;;;24.10;97.80;;;;;;4947026;28;20019;-37
2022/06/10 12:40:12;;;;;;;2.72;1.15;;;24.10;98.00;;;;;;4939079;29;20506;-35
2022/06/10 12:42:44;;;;;;;4.55;1.52;;;24.10;98.00;;;;;;4950445;28;20038;-36
2022/06/10 12:45:33;;;;;;;4.45;1.75;;;24.10;97.90;;;;;;4954020;28;20035;-36
2022/06/10 12:48:01;;;;;;;3.45;1.33;;;24.20;98.10;;;;;;4947686;28;20019;-35
2022/06/10 12:50:30;;;;;;;4.28;1.70;;;24.30;97.60;;;;;;4946882;29;20188;-35
2022/06/10 12:53:05;;;;;;;4.03;1.65;;;24.20;97.50;;;;;;4947643;28;20023;-35
2022/06/10 12:55:53;;;;;;;6.13;1.55;;;24.10;97.60;;;;;;4946970;29;20035;-35
2022/06/10 12:58:37;;;;;;;2.60;1.50;;;24.10;97.50;;;;;;4946750;28;20023;-36
2022/06/10 13:01:21;;;;;;;3.20;1.52;;;24.10;97.60;;;;;;4948306;28;20038;-36
2022/06/10 13:03:49;;;;;;;3.45;1.70;;;24.00;97.60;;;;;;4946844;28;20046;-36
2022/06/10 13:06:34;;;;;;;4.03;1.98;;;23.90;97.30;;;;;;4947558;29;20029;-36
2022/06/10 13:09:10;;;;;;;3.95;1.60;;;23.80;97.40;;;;;;4947662;29;20019;-35
2022/06/10 13:11:53;;;;;;;3.30;1.80;;;23.90;97.50;;;;;;4946700;28;20038;-36
2022/06/10 13:14:25;;;;;;;5.25;1.83;;;23.90;97.50;;;;;;4950763;28;20011;-36
2022/06/10 13:16:59;;;;;;;4.22;1.80;;;23.90;97.50;;;;;;4951707;29;20032;-35
2022/06/10 13:19:43;;;;;;;6.30;2.13;;;23.90;97.70;;;;;;4949545;29;20375;-36
2022/06/10 13:22:21;;;;;;;3.72;1.98;;;23.90;97.70;;;;;;4951108;29;20127;-36
2022/06/10 13:24:52;;;;;;;6.53;1.77;;;24.00;97.70;;;;;;4950332;29;20074;-37
2022/06/10 13:27:25;;;;;;;5.30;1.98;;;24.10;97.70;;;;;;4951551;29;20043;-36
2022/06/10 13:29:53;;;;;;;4.35;1.70;;;24.10;97.70;;;;;;4950661;28;20035;-36
2022/06/10 13:32:19;;;;;;;2.83;1.60;;;24.20;97.70;;;;;;4950114;28;20042;-36